Time;durP1;ratioP1;P1;durP2;ratioP2;P2;SDS_P1;SDS_P2;PMS_P1;PMS_P2;Temp;Humidity;BMP_temperature;BMP_pressure;BME280_temperature;BME280_humidity;BME280_pressure;Samples;Min_cycle;Max_cycle;Signal;HPM_P1;HPM_P2
2021/06/03 00:00:54;;;;;;;6.90;4.50;;;16.10;99.90;;;;;;5012515;28;20171;-75
2021/06/03 00:03:21;;;;;;;7.43;4.70;;;16.10;99.90;;;;;;5011867;28;20213;-74
2021/06/03 00:05:51;;;;;;;6.40;4.20;;;16.10;99.90;;;;;;5012553;28;20421;-75
2021/06/03 00:08:18;;;;;;;5.73;4.70;;;16.00;99.90;;;;;;5012713;28;20440;-74
2021/06/03 00:10:56;;;;;;;14.57;6.77;;;16.00;99.90;;;;;;5012237;28;20425;-74
2021/06/03 00:13:24;;;;;;;11.10;6.90;;;16.00;99.90;;;;;;5012177;28;20535;-74
2021/06/03 00:15:50;;;;;;;9.00;5.40;;;16.00;99.90;;;;;;5012516;28;20958;-75
2021/06/03 00:18:16;;;;;;;8.53;5.40;;;15.90;99.90;;;;;;5012391;28;20439;-74
2021/06/03 00:20:42;;;;;;;4.77;4.37;;;15.90;99.90;;;;;;5012294;28;20773;-74
2021/06/03 00:23:07;;;;;;;5.90;4.20;;;15.80;99.90;;;;;;5012053;28;20502;-74
2021/06/03 00:25:35;;;;;;;4.70;3.67;;;15.80;99.90;;;;;;5012357;28;20654;-77
2021/06/03 00:28:01;;;;;;;5.57;4.10;;;15.70;99.90;;;;;;5012202;28;20265;-74
2021/06/03 00:30:26;;;;;;;5.87;4.47;;;15.60;99.90;;;;;;5012484;28;20507;-74
2021/06/03 00:32:52;;;;;;;4.47;4.03;;;15.50;99.90;;;;;;5011779;28;20889;-75
2021/06/03 00:35:20;;;;;;;6.33;4.30;;;15.50;99.90;;;;;;5012176;28;20680;-75
2021/06/03 00:37:46;;;;;;;4.60;3.67;;;15.40;99.90;;;;;;5011958;28;20426;-73
2021/06/03 00:40:13;;;;;;;5.07;3.70;;;15.30;99.90;;;;;;5012012;28;20431;-77
2021/06/03 00:42:40;;;;;;;4.80;4.30;;;15.30;99.90;;;;;;5011944;28;20507;-75
2021/06/03 00:45:09;;;;;;;4.53;3.80;;;15.20;99.90;;;;;;5011779;28;20441;-74
2021/06/03 00:47:35;;;;;;;4.67;4.20;;;15.20;99.90;;;;;;5011892;28;20500;-74
2021/06/03 00:50:01;;;;;;;6.17;3.80;;;15.20;99.90;;;;;;5011660;28;20460;-78
2021/06/03 00:52:26;;;;;;;5.73;4.17;;;15.10;99.90;;;;;;5011829;28;20178;-74
2021/06/03 00:54:52;;;;;;;4.83;3.87;;;15.10;99.90;;;;;;5011282;28;20257;-74
2021/06/03 00:57:17;;;;;;;4.63;4.20;;;15.00;99.90;;;;;;5011826;28;20593;-74
2021/06/03 00:59:43;;;;;;;7.03;3.63;;;15.00;99.90;;;;;;5011761;28;20190;-77
2021/06/03 01:02:09;;;;;;;5.00;4.07;;;14.90;99.90;;;;;;4994064;28;20567;-77
2021/06/03 01:04:35;;;;;;;5.23;3.97;;;14.80;99.90;;;;;;5011615;28;20424;-74
2021/06/03 01:07:00;;;;;;;4.80;4.27;;;14.80;99.90;;;;;;5011405;28;20185;-74
2021/06/03 01:09:40;;;;;;;7.57;4.37;;;14.70;99.90;;;;;;5011706;28;20209;-73
2021/06/03 01:12:54;;;;;;;3.87;3.57;;;14.60;99.90;;;;;;5011387;28;20667;-73
2021/06/03 01:15:20;;;;;;;4.10;3.70;;;14.60;99.90;;;;;;4991937;28;20483;-74
2021/06/03 01:17:46;;;;;;;4.07;3.77;;;14.50;99.90;;;;;;5011385;28;20720;-72
2021/06/03 01:20:13;;;;;;;4.20;3.90;;;14.50;99.90;;;;;;5011457;28;20418;-74
2021/06/03 01:22:53;;;;;;;4.70;4.30;;;14.40;99.90;;;;;;5011484;28;20414;-75
2021/06/03 01:25:23;;;;;;;4.57;3.77;;;14.40;99.90;;;;;;5011529;28;20559;-74
2021/06/03 01:27:50;;;;;;;8.33;4.47;;;14.30;99.90;;;;;;5011257;28;20421;-74
2021/06/03 01:30:27;;;;;;;4.37;4.07;;;14.30;99.90;;;;;;5011464;28;20775;-74
2021/06/03 01:33:03;;;;;;;5.17;4.67;;;14.30;99.90;;;;;;5011165;28;20467;-74
2021/06/03 01:35:32;;;;;;;6.30;4.13;;;14.30;99.90;;;;;;5011484;28;20595;-74
2021/06/03 01:37:58;;;;;;;4.97;4.47;;;14.20;99.90;;;;;;5011066;28;20416;-73
2021/06/03 01:40:26;;;;;;;5.87;4.10;;;14.20;99.90;;;;;;5011463;28;20459;-74
2021/06/03 01:42:52;;;;;;;7.13;5.47;;;14.10;99.90;;;;;;5011062;28;20409;-74
2021/06/03 01:45:18;;;;;;;4.63;4.20;;;14.10;99.90;;;;;;5011330;28;20419;-76
2021/06/03 01:47:45;;;;;;;4.93;4.53;;;14.10;99.90;;;;;;5011101;28;20178;-76
2021/06/03 01:50:12;;;;;;;4.53;3.67;;;14.10;99.90;;;;;;5011394;28;20492;-74
2021/06/03 01:52:39;;;;;;;5.33;4.43;;;14.00;99.90;;;;;;5011189;28;20436;-74
2021/06/03 01:55:07;;;;;;;4.93;4.50;;;14.00;99.90;;;;;;4993233;28;20471;-74
2021/06/03 01:57:33;;;;;;;5.40;4.97;;;13.90;99.90;;;;;;5011070;28;20453;-74
2021/06/03 01:59:59;;;;;;;4.80;4.33;;;13.90;99.90;;;;;;4993449;28;20496;-76
2021/06/03 02:02:24;;;;;;;6.07;4.30;;;13.80;99.90;;;;;;5011079;28;20206;-74
2021/06/03 02:04:50;;;;;;;9.03;4.97;;;13.80;99.90;;;;;;5010892;28;20185;-74
2021/06/03 02:07:16;;;;;;;5.07;4.60;;;13.80;99.90;;;;;;5011239;28;20170;-75
2021/06/03 02:09:42;;;;;;;4.73;4.33;;;13.80;99.90;;;;;;5011021;28;20206;-74
2021/06/03 02:12:11;;;;;;;4.93;4.43;;;13.90;99.90;;;;;;5010893;28;20524;-77
2021/06/03 02:14:40;;;;;;;6.60;5.00;;;13.80;99.90;;;;;;5010898;28;20214;-74
2021/06/03 02:17:26;;;;;;;6.90;4.90;;;13.80;99.90;;;;;;5011009;28;20406;-74
2021/06/03 02:19:59;;;;;;;7.30;5.33;;;13.80;99.90;;;;;;5010882;28;20440;-74
2021/06/03 02:22:25;;;;;;;5.73;4.60;;;13.70;99.90;;;;;;5011169;28;20946;-74
2021/06/03 02:24:51;;;;;;;4.70;4.40;;;13.70;99.90;;;;;;5010758;28;20479;-74
2021/06/03 02:27:19;;;;;;;6.40;5.37;;;13.70;99.90;;;;;;5013113;28;20899;-74
2021/06/03 02:29:45;;;;;;;5.43;5.00;;;13.70;99.90;;;;;;5014373;28;20433;-73
2021/06/03 02:32:12;;;;;;;5.40;4.87;;;13.70;99.90;;;;;;4996619;28;20424;-73
2021/06/03 02:34:38;;;;;;;5.27;4.60;;;13.80;99.90;;;;;;5014281;28;20461;-74
2021/06/03 02:37:12;;;;;;;4.80;4.40;;;13.80;99.90;;;;;;5014111;28;20416;-74
2021/06/03 02:39:40;;;;;;;9.87;5.00;;;13.80;99.90;;;;;;5014410;28;21073;-75
2021/06/03 02:42:07;;;;;;;5.63;5.13;;;13.80;99.90;;;;;;5014140;28;20473;-74
2021/06/03 02:44:37;;;;;;;8.57;5.47;;;13.90;99.90;;;;;;5014095;28;20922;-74
2021/06/03 02:47:04;;;;;;;4.47;4.17;;;13.90;99.90;;;;;;5013969;28;20737;-73
2021/06/03 02:49:30;;;;;;;7.53;4.63;;;14.00;99.90;;;;;;5014136;28;20524;-77
2021/06/03 02:51:56;;;;;;;5.20;4.30;;;14.00;99.90;;;;;;5013904;28;20616;-74
2021/06/03 02:54:21;;;;;;;6.20;5.03;;;14.10;99.90;;;;;;5013852;28;21294;-74
2021/06/03 02:56:47;;;;;;;5.57;5.07;;;14.10;99.90;;;;;;5013938;28;20179;-74
2021/06/03 02:59:12;;;;;;;5.83;4.97;;;14.10;99.90;;;;;;5013957;28;20203;-74
2021/06/03 03:01:38;;;;;;;9.27;5.37;;;14.10;99.90;;;;;;5013833;28;20171;-73
2021/06/03 03:04:04;;;;;;;7.03;5.73;;;14.20;99.90;;;;;;5013645;28;20175;-74
2021/06/03 03:06:29;;;;;;;5.30;4.80;;;14.20;99.90;;;;;;5013762;28;20234;-73
2021/06/03 03:08:55;;;;;;;6.47;4.93;;;14.20;99.90;;;;;;5013500;28;20703;-76
2021/06/03 03:11:20;;;;;;;7.57;5.20;;;14.20;99.90;;;;;;5013812;28;20758;-74
2021/06/03 03:13:47;;;;;;;10.13;5.20;;;14.20;99.90;;;;;;5013614;28;20613;-73
2021/06/03 03:16:12;;;;;;;5.83;5.17;;;14.30;99.90;;;;;;4995925;28;20183;-73
2021/06/03 03:18:38;;;;;;;5.30;4.87;;;14.30;99.90;;;;;;5013538;28;20446;-74
2021/06/03 03:21:05;;;;;;;7.27;5.20;;;14.30;99.90;;;;;;5013510;28;20179;-73
2021/06/03 03:23:30;;;;;;;6.23;5.20;;;14.30;99.90;;;;;;5013468;28;20660;-74
2021/06/03 03:25:56;;;;;;;5.10;4.67;;;14.30;99.90;;;;;;5013148;28;20418;-73
2021/06/03 03:28:22;;;;;;;5.27;4.77;;;14.30;99.90;;;;;;4995907;28;20203;-74
2021/06/03 03:30:47;;;;;;;4.80;4.40;;;14.40;99.90;;;;;;5013051;28;20179;-77
2021/06/03 03:33:14;;;;;;;7.77;4.83;;;14.40;99.90;;;;;;5013239;28;20899;-74
2021/06/03 03:35:42;;;;;;;6.43;5.83;;;14.40;99.90;;;;;;5013140;28;20211;-73
2021/06/03 03:38:07;;;;;;;5.33;4.93;;;14.40;99.90;;;;;;5012936;28;20785;-74
2021/06/03 03:40:33;;;;;;;8.53;4.90;;;14.40;99.90;;;;;;5013145;28;20412;-77
2021/06/03 03:42:59;;;;;;;5.57;5.10;;;14.50;99.90;;;;;;5013063;28;20183;-74
2021/06/03 03:45:27;;;;;;;5.10;4.60;;;14.50;99.90;;;;;;5013000;28;20190;-77
2021/06/03 03:47:53;;;;;;;5.90;4.37;;;14.60;99.90;;;;;;5012860;28;20182;-74
2021/06/03 03:50:19;;;;;;;6.17;5.30;;;14.60;99.90;;;;;;5013054;28;20441;-74
2021/06/03 03:52:45;;;;;;;5.47;4.67;;;14.70;99.90;;;;;;5012630;28;20479;-74
2021/06/03 03:55:13;;;;;;;6.60;5.43;;;14.70;99.90;;;;;;5012768;28;20563;-73
2021/06/03 03:57:38;;;;;;;7.23;5.37;;;14.80;99.90;;;;;;5012790;28;20547;-74
2021/06/03 04:00:11;;;;;;;5.50;4.57;;;14.80;99.90;;;;;;5012625;28;20431;-77
2021/06/03 04:02:36;;;;;;;6.77;5.40;;;14.90;99.90;;;;;;5012570;28;20210;-74
2021/06/03 04:05:03;;;;;;;5.90;5.27;;;14.90;99.90;;;;;;5012546;28;20790;-74
2021/06/03 04:07:29;;;;;;;5.33;4.83;;;14.90;99.90;;;;;;5012707;28;20600;-74
2021/06/03 04:09:55;;;;;;;8.13;4.97;;;15.00;99.90;;;;;;5012551;28;20445;-75
2021/06/03 04:12:21;;;;;;;6.97;5.10;;;15.00;99.90;;;;;;5012656;28;20418;-74
2021/06/03 04:14:46;;;;;;;6.13;4.80;;;15.10;99.90;;;;;;5012364;28;20213;-74
2021/06/03 04:17:12;;;;;;;6.80;5.50;;;15.10;99.90;;;;;;5012497;28;20413;-74
2021/06/03 04:19:37;;;;;;;5.40;4.90;;;15.20;99.90;;;;;;5012482;28;20197;-74
2021/06/03 04:22:03;;;;;;;5.80;4.87;;;15.30;99.90;;;;;;5012368;28;20695;-74
2021/06/03 04:24:29;;;;;;;6.67;5.73;;;15.30;99.90;;;;;;5012306;28;20544;-74
2021/06/03 04:26:54;;;;;;;7.93;5.40;;;15.40;99.90;;;;;;5012266;28;20645;-74
2021/06/03 04:29:20;;;;;;;6.23;5.57;;;15.50;99.90;;;;;;5012302;28;20281;-75
2021/06/03 04:31:46;;;;;;;6.73;4.77;;;15.50;99.90;;;;;;4995052;28;20185;-74
2021/06/03 04:34:11;;;;;;;6.03;5.63;;;15.50;99.90;;;;;;5011998;28;20297;-74
2021/06/03 04:36:37;;;;;;;6.20;4.93;;;15.60;99.90;;;;;;5012166;28;20183;-74
2021/06/03 04:39:03;;;;;;;7.17;5.30;;;15.60;99.90;;;;;;5011926;28;20273;-76
2021/06/03 04:41:29;;;;;;;5.93;5.30;;;15.70;99.90;;;;;;5012056;28;20421;-74
2021/06/03 04:43:54;;;;;;;15.53;5.80;;;15.70;99.90;;;;;;5011818;28;20421;-77
2021/06/03 04:46:20;;;;;;;6.03;5.30;;;15.70;99.90;;;;;;5012056;28;20187;-74
2021/06/03 04:48:46;;;;;;;6.00;5.40;;;15.80;99.90;;;;;;5011548;28;20209;-75
2021/06/03 04:51:11;;;;;;;6.10;5.50;;;15.80;99.90;;;;;;5011779;28;20218;-77
2021/06/03 04:53:37;;;;;;;6.53;5.60;;;15.80;99.90;;;;;;5011557;28;20316;-74
2021/06/03 04:56:03;;;;;;;11.03;5.00;;;15.90;99.90;;;;;;5011640;28;20182;-74
2021/06/03 04:58:28;;;;;;;6.03;4.90;;;15.90;99.90;;;;;;5011886;28;20235;-74
2021/06/03 05:00:54;;;;;;;6.17;5.13;;;15.90;99.90;;;;;;5011681;28;20183;-75
2021/06/03 05:03:20;;;;;;;5.60;5.20;;;15.90;99.90;;;;;;5011737;28;20595;-77
2021/06/03 05:05:46;;;;;;;5.90;5.33;;;16.00;99.90;;;;;;5011867;28;20185;-74
2021/06/03 05:08:11;;;;;;;6.77;6.00;;;16.10;99.90;;;;;;4994122;28;20209;-74
2021/06/03 05:10:37;;;;;;;5.90;5.40;;;16.10;99.90;;;;;;5011759;28;20425;-74
2021/06/03 05:13:03;;;;;;;5.73;5.30;;;16.20;99.90;;;;;;5011248;28;20581;-75
2021/06/03 05:15:30;;;;;;;8.60;5.30;;;16.20;99.90;;;;;;5011657;28;20253;-74
2021/06/03 05:17:56;;;;;;;5.40;5.00;;;16.30;99.90;;;;;;5011348;28;20836;-74
2021/06/03 05:20:27;;;;;;;5.40;5.00;;;16.30;99.90;;;;;;5011790;28;20815;-74
2021/06/03 05:22:54;;;;;;;5.83;4.80;;;16.40;99.90;;;;;;5011286;28;20427;-74
2021/06/03 05:25:23;;;;;;;6.30;5.53;;;16.50;99.90;;;;;;5011728;28;20895;-74
2021/06/03 05:27:48;;;;;;;5.97;5.47;;;16.60;99.90;;;;;;5011388;28;20435;-73
2021/06/03 05:30:15;;;;;;;5.20;4.80;;;16.70;99.90;;;;;;5011716;28;20907;-74
2021/06/03 05:32:42;;;;;;;5.53;5.03;;;16.90;99.90;;;;;;5011378;28;20189;-80
2021/06/03 05:35:11;;;;;;;4.73;4.33;;;17.00;99.90;;;;;;5011342;28;20462;-77
2021/06/03 05:37:36;;;;;;;5.53;5.13;;;17.20;99.90;;;;;;5011593;28;20509;-74
2021/06/03 05:40:04;;;;;;;7.13;5.70;;;17.40;99.90;;;;;;5011283;28;20521;-74
2021/06/03 05:42:30;;;;;;;5.20;4.70;;;17.60;99.90;;;;;;5011511;28;20662;-74
2021/06/03 05:44:56;;;;;;;6.73;5.30;;;17.90;99.90;;;;;;5011095;28;20421;-74
2021/06/03 05:47:22;;;;;;;5.60;5.20;;;18.20;99.90;;;;;;5011345;28;20413;-74
2021/06/03 05:49:47;;;;;;;6.37;5.73;;;18.70;99.90;;;;;;5011309;28;20699;-74
2021/06/03 05:52:13;;;;;;;5.40;5.00;;;19.30;99.90;;;;;;5011375;28;20179;-77
2021/06/03 05:54:39;;;;;;;4.87;4.50;;;19.90;99.90;;;;;;5011409;28;20217;-72
2021/06/03 05:57:04;;;;;;;4.87;4.47;;;20.30;99.90;;;;;;5011752;28;20179;-73
2021/06/03 05:59:30;;;;;;;5.30;4.77;;;21.10;99.90;;;;;;5011358;28;20835;-73
2021/06/03 06:02:01;;;;;;;4.23;3.80;;;21.60;99.90;;;;;;5012895;28;20248;-76
2021/06/03 06:06:53;;;;;;;5.60;4.63;;;21.70;99.90;;;;;;5014931;28;20413;-74
2021/06/03 06:09:19;;;;;;;9.30;5.40;;;21.70;99.90;;;;;;5014977;28;20203;-74
2021/06/03 06:11:45;;;;;;;4.87;4.40;;;21.50;99.90;;;;;;5014801;28;20209;-75
2021/06/03 06:14:11;;;;;;;3.87;3.63;;;21.40;99.90;;;;;;5014589;28;20468;-74
2021/06/03 06:16:38;;;;;;;4.60;4.20;;;21.30;99.90;;;;;;4997259;28;20413;-74
2021/06/03 06:19:05;;;;;;;4.00;3.60;;;21.20;99.90;;;;;;5014574;28;20468;-74
2021/06/03 06:21:31;;;;;;;4.63;4.23;;;21.10;99.90;;;;;;5014700;28;20533;-74
2021/06/03 06:23:58;;;;;;;4.40;4.07;;;21.00;99.90;;;;;;4980518;28;20472;-76
2021/06/03 06:26:24;;;;;;;4.33;3.90;;;21.00;99.90;;;;;;4997056;28;20942;-75
2021/06/03 06:28:51;;;;;;;4.53;4.03;;;21.00;99.90;;;;;;5014667;28;20951;-74
2021/06/03 06:31:17;;;;;;;6.43;4.90;;;21.00;99.90;;;;;;5014328;28;20414;-74
2021/06/03 06:33:43;;;;;;;4.30;4.00;;;21.00;99.90;;;;;;5014235;28;20425;-75
2021/06/03 06:36:10;;;;;;;6.70;4.57;;;21.00;99.90;;;;;;5014481;28;20413;-76
2021/06/03 06:38:36;;;;;;;4.57;3.87;;;21.10;99.90;;;;;;5014666;28;20585;-74
2021/06/03 06:41:01;;;;;;;4.57;4.13;;;21.10;99.90;;;;;;4997128;28;20410;-75
2021/06/03 06:43:27;;;;;;;6.83;4.40;;;21.20;99.90;;;;;;5014237;28;20420;-74
2021/06/03 06:45:53;;;;;;;4.90;4.60;;;21.30;99.90;;;;;;5014126;28;20253;-74
2021/06/03 06:48:19;;;;;;;5.30;4.63;;;21.20;99.90;;;;;;5014064;28;20205;-75
2021/06/03 06:50:46;;;;;;;5.00;4.60;;;21.20;99.90;;;;;;4996521;28;20174;-74
2021/06/03 06:53:12;;;;;;;4.90;4.40;;;21.20;99.90;;;;;;5013841;28;20186;-74
2021/06/03 06:55:39;;;;;;;5.20;4.20;;;21.40;99.90;;;;;;5013971;28;20465;-74
2021/06/03 06:58:05;;;;;;;5.10;4.70;;;21.50;99.90;;;;;;4996255;28;20417;-74
2021/06/03 07:00:33;;;;;;;5.83;5.07;;;21.50;99.90;;;;;;5014150;28;20417;-74
2021/06/03 07:02:58;;;;;;;6.13;5.10;;;21.50;99.90;;;;;;5013687;28;20819;-74
2021/06/03 07:05:25;;;;;;;5.17;4.73;;;21.60;99.90;;;;;;5013766;28;20505;-74
2021/06/03 07:07:51;;;;;;;5.53;4.53;;;21.50;99.90;;;;;;4996394;28;20641;-75
2021/06/03 07:10:17;;;;;;;9.87;4.40;;;21.50;99.90;;;;;;4996359;28;20417;-74
2021/06/03 07:12:43;;;;;;;4.43;4.03;;;21.60;99.90;;;;;;5013252;28;20417;-74
2021/06/03 07:15:12;;;;;;;6.50;4.40;;;21.80;99.90;;;;;;5013610;28;20470;-74
2021/06/03 07:17:37;;;;;;;9.90;4.97;;;21.90;99.90;;;;;;4996563;28;20413;-77
2021/06/03 07:20:09;;;;;;;5.07;4.67;;;22.10;99.90;;;;;;5013485;28;20434;-74
2021/06/03 07:22:36;;;;;;;6.83;4.80;;;22.10;99.90;;;;;;5013623;28;20550;-73
2021/06/03 07:25:02;;;;;;;5.17;4.63;;;22.10;99.90;;;;;;4995917;28;20422;-74
2021/06/03 07:27:27;;;;;;;12.77;5.63;;;22.30;99.90;;;;;;5013457;28;20417;-74
2021/06/03 07:29:58;;;;;;;6.20;5.70;;;22.40;99.90;;;;;;5013348;28;20564;-77
2021/06/03 07:32:25;;;;;;;8.23;5.00;;;22.50;99.90;;;;;;5013431;28;20171;-74
2021/06/03 07:34:50;;;;;;;6.10;5.60;;;22.60;99.90;;;;;;5012983;28;21008;-74
2021/06/03 07:37:16;;;;;;;5.77;5.23;;;22.70;99.90;;;;;;5013297;28;20405;-74
2021/06/03 07:39:41;;;;;;;6.07;5.33;;;22.70;99.90;;;;;;5013383;28;20282;-77
2021/06/03 07:42:09;;;;;;;7.23;5.70;;;22.80;99.90;;;;;;5013097;28;20175;-74
2021/06/03 07:44:35;;;;;;;5.17;4.70;;;22.90;99.90;;;;;;5013179;28;20289;-74
2021/06/03 07:47:00;;;;;;;4.63;4.33;;;23.10;99.90;;;;;;5012973;28;20919;-74
2021/06/03 07:49:26;;;;;;;5.33;4.87;;;23.30;99.90;;;;;;5013271;28;20201;-75
2021/06/03 07:51:52;;;;;;;7.43;4.70;;;23.60;99.90;;;;;;5012990;28;20213;-74
2021/06/03 07:54:17;;;;;;;7.37;4.70;;;24.10;99.90;;;;;;5012721;28;20198;-74
2021/06/03 07:56:43;;;;;;;5.23;4.73;;;24.60;99.90;;;;;;5012999;28;20650;-77
2021/06/03 07:59:08;;;;;;;5.60;4.83;;;25.00;99.90;;;;;;5012888;28;20687;-74
2021/06/03 08:01:34;;;;;;;4.50;4.10;;;25.40;99.90;;;;;;5012959;28;20171;-74
2021/06/03 08:03:59;;;;;;;4.13;3.67;;;26.10;99.90;;;;;;5012793;28;20696;-75
2021/06/03 08:06:25;;;;;;;5.03;4.57;;;26.80;99.90;;;;;;5012948;28;20555;-74
2021/06/03 08:08:50;;;;;;;6.13;4.00;;;27.30;99.90;;;;;;5012574;28;20203;-74
2021/06/03 08:11:16;;;;;;;5.10;4.60;;;27.60;99.90;;;;;;5012748;28;20190;-74
2021/06/03 08:13:42;;;;;;;3.90;3.60;;;28.20;99.90;;;;;;5012621;28;20233;-77
2021/06/03 08:16:07;;;;;;;4.03;3.47;;;28.10;99.90;;;;;;5012504;28;20171;-75
2021/06/03 08:18:33;;;;;;;5.93;3.73;;;28.00;99.90;;;;;;5012664;28;20726;-75
2021/06/03 08:21:02;;;;;;;8.63;3.93;;;28.00;99.90;;;;;;5012531;28;20199;-75
2021/06/03 08:23:28;;;;;;;3.03;2.63;;;28.50;99.90;;;;;;5011940;28;20496;-75
2021/06/03 08:25:56;;;;;;;3.10;2.90;;;29.10;99.90;;;;;;5011902;28;20421;-75
2021/06/03 08:28:23;;;;;;;3.53;3.23;;;29.50;99.90;;;;;;5012782;28;20450;-75
2021/06/03 08:30:49;;;;;;;4.63;3.13;;;29.40;99.90;;;;;;5012343;28;20992;-75
2021/06/03 08:33:15;;;;;;;5.30;3.23;;;29.50;99.90;;;;;;5012068;28;20418;-74
2021/06/03 08:35:41;;;;;;;7.53;3.80;;;29.70;99.90;;;;;;5012088;28;20540;-74
2021/06/03 08:38:10;;;;;;;5.80;3.30;;;30.30;99.90;;;;;;5011957;28;20210;-75
2021/06/03 08:40:48;;;;;;;3.23;2.93;;;30.40;99.90;;;;;;5012225;28;20202;-75
2021/06/03 08:43:14;;;;;;;3.17;2.70;;;30.50;99.90;;;;;;5011782;28;20413;-77
2021/06/03 08:45:42;;;;;;;6.60;3.40;;;30.60;99.90;;;;;;5012031;28;20405;-78
2021/06/03 08:48:08;;;;;;;3.90;2.60;;;30.80;99.90;;;;;;5011948;28;21086;-75
2021/06/03 08:50:40;;;;;;;3.57;2.70;;;31.10;99.90;;;;;;5012134;28;20426;-75
2021/06/03 08:53:06;;;;;;;6.47;2.70;;;30.80;99.90;;;;;;5011704;28;20417;-75
2021/06/03 08:58:21;;;;;;;5.70;2.17;;;29.80;99.90;;;;;;5011863;28;20460;-75
2021/06/03 09:00:47;;;;;;;1.87;1.77;;;29.60;99.90;;;;;;5011616;28;20422;-75
2021/06/03 09:03:13;;;;;;;2.20;1.47;;;29.30;99.90;;;;;;5011604;28;20424;-75
2021/06/03 09:05:40;;;;;;;1.70;1.60;;;28.90;99.90;;;;;;5011967;28;20178;-78
2021/06/03 09:08:23;;;;;;;2.90;2.60;;;28.50;99.90;;;;;;4993835;28;20954;-75
2021/06/03 09:10:50;;;;;;;3.00;1.80;;;27.80;99.90;;;;;;5011729;28;20916;-77
2021/06/03 09:13:22;;;;;;;2.60;1.77;;;27.40;99.90;;;;;;5011457;28;20414;-75
2021/06/03 09:15:53;;;;;;;2.03;1.87;;;27.30;99.90;;;;;;5011572;28;20464;-77
2021/06/03 09:18:28;;;;;;;1.77;1.67;;;27.90;99.90;;;;;;5011840;28;20559;-75
2021/06/03 09:20:54;;;;;;;7.70;3.53;;;28.70;99.90;;;;;;4993821;28;20435;-75
2021/06/03 09:23:27;;;;;;;10.37;9.47;;;29.70;99.90;;;;;;5011482;28;20421;-78
2021/06/03 09:25:54;;;;;;;4.17;3.57;;;30.50;99.90;;;;;;5011638;28;20416;-75
2021/06/03 09:28:32;;;;;;;5.00;4.50;;;30.00;99.90;;;;;;5011571;28;20525;-78
2021/06/03 09:31:16;;;;;;;3.33;2.93;;;30.30;99.90;;;;;;5011488;28;20413;-75
2021/06/03 09:33:45;;;;;;;3.50;3.20;;;30.90;99.90;;;;;;5011299;28;20414;-75
2021/06/03 09:36:15;;;;;;;4.07;3.23;;;31.20;99.90;;;;;;5013698;28;20456;-75
2021/06/03 09:38:53;;;;;;;3.60;2.73;;;31.60;99.90;;;;;;5015591;28;20429;-75
2021/06/03 09:41:19;;;;;;;2.87;2.13;;;31.50;99.90;;;;;;5015379;28;20432;-75
2021/06/03 09:43:47;;;;;;;3.70;2.33;;;31.50;99.90;;;;;;5015310;28;20496;-75
2021/06/03 09:46:15;;;;;;;3.00;2.90;;;31.50;99.90;;;;;;5015288;28;20410;-75
2021/06/03 09:48:44;;;;;;;3.03;2.73;;;31.60;99.90;;;;;;5015430;28;20471;-75
2021/06/03 09:51:22;;;;;;;8.17;7.23;;;31.70;99.90;;;;;;5015119;28;20460;-75
2021/06/03 09:54:01;;;;;;;4.37;3.77;;;31.90;99.90;;;;;;5014788;28;20405;-77
2021/06/03 09:56:31;;;;;;;3.53;2.40;;;32.00;99.90;;;;;;5015287;28;20444;-75
2021/06/03 09:58:58;;;;;;;7.23;2.67;;;31.50;99.90;;;;;;5015031;28;20491;-76
2021/06/03 10:01:44;;;;;;;3.00;2.90;;;31.30;99.90;;;;;;5014975;28;20417;-75
2021/06/03 10:04:11;;;;;;;4.50;2.40;;;31.20;99.90;;;;;;5015042;28;21053;-75
2021/06/03 10:06:52;;;;;;;2.80;2.60;;;30.40;99.90;;;;;;5014919;28;20409;-75
2021/06/03 10:09:32;;;;;;;3.50;3.07;;;29.40;99.90;;;;;;4997426;28;20452;-75
2021/06/03 10:11:57;;;;;;;4.30;2.40;;;29.50;99.90;;;;;;5014656;28;20421;-75
2021/06/03 10:14:24;;;;;;;3.70;2.80;;;30.10;99.90;;;;;;5014817;28;20452;-76
2021/06/03 10:16:49;;;;;;;3.20;2.87;;;30.70;99.90;;;;;;5014734;28;20167;-75
2021/06/03 10:19:28;;;;;;;3.43;2.53;;;31.40;99.90;;;;;;5014784;28;20452;-75
2021/06/03 10:22:12;;;;;;;5.83;2.40;;;31.80;99.90;;;;;;5014697;28;20197;-77
2021/06/03 10:25:29;;;;;;;3.10;2.90;;;32.30;99.90;;;;;;5014563;28;20472;-78
2021/06/03 10:27:58;;;;;;;3.20;3.00;;;32.70;99.90;;;;;;4970676;28;20426;-75
2021/06/03 10:30:30;;;;;;;3.00;2.80;;;32.30;99.90;;;;;;5014557;28;20451;-75
2021/06/03 10:32:59;;;;;;;3.27;2.67;;;31.50;99.90;;;;;;5014238;28;20418;-75
2021/06/03 10:35:31;;;;;;;6.70;4.10;;;30.80;99.90;;;;;;5014427;28;20461;-75
2021/06/03 10:37:58;;;;;;;10.47;8.00;;;30.90;99.90;;;;;;5014513;28;20782;-75
2021/06/03 10:40:27;;;;;;;31.77;25.37;;;30.80;99.90;;;;;;5014733;28;20833;-75
2021/06/03 10:42:54;;;;;;;5.77;5.17;;;30.50;99.90;;;;;;5014114;28;20416;-75
2021/06/03 10:45:21;;;;;;;4.47;3.77;;;30.50;99.90;;;;;;5014376;28;20428;-75
2021/06/03 10:47:47;;;;;;;15.10;8.37;;;30.50;99.90;;;;;;5013507;28;20421;-77
2021/06/03 10:50:26;;;;;;;6.87;5.97;;;29.90;99.90;;;;;;5014272;28;20870;-76
2021/06/03 10:52:52;;;;;;;9.40;4.50;;;29.20;99.90;;;;;;5014075;28;20895;-75
2021/06/03 10:55:30;;;;;;;2.57;2.40;;;29.80;99.90;;;;;;5014046;28;20583;-75
2021/06/03 10:58:00;;;;;;;7.23;5.90;;;29.90;99.90;;;;;;5013924;28;20409;-77
2021/06/03 11:00:57;;;;;;;6.40;5.70;;;29.60;99.90;;;;;;5014255;28;20797;-78
2021/06/03 11:03:46;;;;;;;77.00;66.67;;;29.20;99.90;;;;;;5002975;28;20453;-75
2021/06/03 11:06:14;;;;;;;24.83;20.93;;;29.10;99.90;;;;;;5013913;28;20417;-75
2021/06/03 11:08:50;;;;;;;23.77;19.50;;;28.90;99.80;;;;;;5013845;28;20445;-75
2021/06/03 11:11:16;;;;;;;12.87;11.63;;;28.70;99.90;;;;;;5013766;28;20418;-74
2021/06/03 11:13:47;;;;;;;3.63;3.17;;;28.30;99.70;;;;;;5013576;28;20418;-75
2021/06/03 11:16:16;;;;;;;1.93;1.83;;;28.20;99.90;;;;;;5013692;28;20229;-76
2021/06/03 11:18:45;;;;;;;12.70;3.23;;;27.80;99.90;;;;;;5013731;28;20430;-74
2021/06/03 11:21:36;;;;;;;7.00;3.27;;;27.40;99.90;;;;;;5013471;28;20524;-75
2021/06/03 11:24:06;;;;;;;3.57;2.47;;;27.50;99.90;;;;;;5013516;28;20472;-75
2021/06/03 11:26:40;;;;;;;2.23;2.13;;;27.60;99.90;;;;;;5013425;28;20471;-75
2021/06/03 11:29:16;;;;;;;3.27;1.97;;;27.40;99.90;;;;;;5013382;28;20525;-74
2021/06/03 11:32:10;;;;;;;2.20;2.10;;;27.10;99.90;;;;;;5013396;28;20401;-74
2021/06/03 11:34:39;;;;;;;2.50;1.80;;;27.00;99.90;;;;;;5013172;28;21089;-75
2021/06/03 11:37:10;;;;;;;2.00;1.90;;;27.10;99.90;;;;;;5012987;28;20406;-75
2021/06/03 11:40:00;;;;;;;2.30;2.20;;;27.50;99.90;;;;;;5013484;28;20437;-75
2021/06/03 11:42:25;;;;;;;2.60;2.13;;;28.20;99.90;;;;;;5013098;28;20421;-74
2021/06/03 11:45:07;;;;;;;3.30;2.20;;;28.60;99.90;;;;;;5012883;28;20903;-75
2021/06/03 11:47:40;;;;;;;2.70;1.67;;;28.70;99.90;;;;;;5013298;28;20178;-74
2021/06/03 11:50:14;;;;;;;4.70;2.43;;;28.70;99.90;;;;;;4995533;28;20895;-75
2021/06/03 11:52:52;;;;;;;5.37;2.30;;;28.90;99.90;;;;;;5012982;28;20409;-74
2021/06/03 11:55:27;;;;;;;2.40;2.10;;;28.80;99.90;;;;;;5012919;28;20507;-74
2021/06/03 11:58:26;;;;;;;1.97;1.87;;;28.70;99.90;;;;;;5012798;28;20406;-77
2021/06/03 12:00:52;;;;;;;3.93;2.90;;;28.40;99.90;;;;;;5012829;28;20484;-75
2021/06/03 12:03:26;;;;;;;4.37;2.30;;;28.30;99.90;;;;;;5012714;28;20930;-77
2021/06/03 12:05:55;;;;;;;5.33;2.10;;;28.10;99.90;;;;;;5012624;28;20438;-77
2021/06/03 12:08:42;;;;;;;1.90;1.63;;;28.00;99.90;;;;;;5012724;28;20429;-75
2021/06/03 12:11:12;;;;;;;5.00;1.50;;;28.30;99.90;;;;;;5012720;28;20413;-75
2021/06/03 12:13:38;;;;;;;1.90;1.67;;;28.40;99.90;;;;;;5012631;28;20498;-75
2021/06/03 12:16:05;;;;;;;2.10;1.47;;;28.20;99.90;;;;;;5012362;28;20483;-74
2021/06/03 12:18:36;;;;;;;1.43;1.33;;;28.40;99.90;;;;;;5012529;28;20536;-77
2021/06/03 12:21:03;;;;;;;3.83;1.77;;;28.40;99.90;;;;;;5012548;28;20907;-74
2021/06/03 12:23:28;;;;;;;3.73;2.30;;;28.60;99.90;;;;;;5012371;28;20414;-75
2021/06/03 12:25:54;;;;;;;2.40;2.30;;;28.40;99.90;;;;;;5012364;28;20424;-74
2021/06/03 12:28:19;;;;;;;3.67;1.70;;;28.40;99.90;;;;;;5012396;28;20190;-75
2021/06/03 12:30:45;;;;;;;2.83;2.17;;;28.30;99.90;;;;;;5012247;28;20178;-77
2021/06/03 12:33:26;;;;;;;2.47;1.80;;;28.10;99.90;;;;;;5012010;28;20691;-74
2021/06/03 12:36:04;;;;;;;2.60;1.70;;;27.70;99.90;;;;;;5012221;28;20199;-76
2021/06/03 12:38:29;;;;;;;2.00;1.90;;;28.10;99.90;;;;;;5012267;28;20483;-75
2021/06/03 12:41:01;;;;;;;2.43;1.80;;;28.20;99.90;;;;;;4994495;28;20410;-75
2021/06/03 12:43:37;;;;;;;2.73;2.20;;;28.10;99.90;;;;;;5011908;28;20167;-75
2021/06/03 12:46:03;;;;;;;2.33;2.23;;;28.30;99.90;;;;;;5012066;28;20444;-77
2021/06/03 12:48:30;;;;;;;3.93;2.37;;;28.50;99.90;;;;;;5011810;28;20476;-76
2021/06/03 12:50:57;;;;;;;3.20;2.00;;;28.60;99.90;;;;;;5012249;28;20442;-75
2021/06/03 12:53:23;;;;;;;2.70;2.50;;;28.30;99.90;;;;;;5011795;28;20449;-75
2021/06/03 12:55:48;;;;;;;2.60;2.50;;;27.90;99.90;;;;;;5011691;28;20564;-75
2021/06/03 12:58:17;;;;;;;5.07;3.23;;;27.60;99.90;;;;;;5011871;28;20437;-75